Time;durP1;ratioP1;P1;durP2;ratioP2;P2;SDS_P1;SDS_P2;PMS_P1;PMS_P2;Temp;Humidity;BMP_temperature;BMP_pressure;BME280_temperature;BME280_humidity;BME280_pressure;Samples;Min_cycle;Max_cycle;Signal;HPM_P1;HPM_P2
2022/09/02 00:01:26;;;;;;;3.50;1.38;;;14.40;99.90;;;;;;5071973;28;20036;-64
2022/09/02 00:03:57;;;;;;;4.60;1.15;;;14.30;99.90;;;;;;5070623;28;20079;-64
2022/09/02 00:06:23;;;;;;;2.03;1.38;;;14.30;99.90;;;;;;5072717;28;20107;-64
2022/09/02 00:08:48;;;;;;;4.05;1.70;;;14.30;99.90;;;;;;5092087;28;20052;-64
2022/09/02 00:11:18;;;;;;;1.92;1.15;;;14.20;99.90;;;;;;5091968;28;20378;-64
2022/09/02 00:13:45;;;;;;;5.75;1.40;;;14.30;99.90;;;;;;5074004;28;20123;-63
2022/09/02 00:16:11;;;;;;;1.60;1.10;;;14.20;99.90;;;;;;5073389;28;20085;-64
2022/09/02 00:18:38;;;;;;;3.38;1.50;;;14.20;99.90;;;;;;5072237;28;20050;-64
2022/09/02 00:21:04;;;;;;;2.97;1.50;;;14.20;99.90;;;;;;5074146;28;20414;-64
2022/09/02 00:23:30;;;;;;;3.42;1.10;;;14.20;99.90;;;;;;5074037;28;20051;-64
2022/09/02 00:25:57;;;;;;;1.77;1.20;;;14.10;99.90;;;;;;5073951;28;20504;-64
2022/09/02 00:28:23;;;;;;;1.80;1.20;;;14.10;99.90;;;;;;5057251;28;20083;-63
2022/09/02 00:30:49;;;;;;;5.38;1.20;;;14.10;99.90;;;;;;5092238;28;20461;-64
2022/09/02 00:33:16;;;;;;;3.22;1.30;;;14.10;99.90;;;;;;5073894;28;20028;-63
2022/09/02 00:35:42;;;;;;;2.20;1.13;;;14.00;99.90;;;;;;5057243;28;20390;-63
2022/09/02 00:38:08;;;;;;;2.78;1.20;;;14.10;99.90;;;;;;5091843;28;20036;-63
2022/09/02 00:40:36;;;;;;;4.75;1.67;;;14.00;99.90;;;;;;5073605;28;20036;-63
2022/09/02 00:43:05;;;;;;;4.57;1.40;;;14.00;99.90;;;;;;5057286;28;20071;-63
2022/09/02 00:45:31;;;;;;;2.83;1.05;;;13.90;99.90;;;;;;5057081;28;20104;-63
2022/09/02 00:47:56;;;;;;;3.25;1.20;;;13.90;99.90;;;;;;5071132;28;20043;-63
2022/09/02 00:50:30;;;;;;;3.58;1.40;;;13.80;99.90;;;;;;5073518;28;20052;-64
2022/09/02 00:53:03;;;;;;;4.10;1.33;;;13.80;99.90;;;;;;5091489;28;20051;-64
2022/09/02 00:55:31;;;;;;;4.20;1.45;;;13.80;99.90;;;;;;5056807;28;20476;-64
2022/09/02 00:58:19;;;;;;;2.28;1.30;;;13.70;99.90;;;;;;5095484;28;20480;-64
2022/09/02 01:00:47;;;;;;;2.67;1.40;;;13.70;99.90;;;;;;5077381;28;20489;-63
2022/09/02 01:03:16;;;;;;;1.80;1.10;;;13.70;99.90;;;;;;5060756;28;20056;-64
2022/09/02 01:05:46;;;;;;;4.27;1.70;;;13.60;99.90;;;;;;5095891;28;20039;-64
2022/09/02 01:08:19;;;;;;;2.78;1.35;;;13.60;99.90;;;;;;5095235;28;20181;-63
2022/09/02 01:10:46;;;;;;;2.75;1.52;;;13.50;99.90;;;;;;5077396;28;20051;-64
2022/09/02 01:13:16;;;;;;;2.80;1.10;;;13.50;99.90;;;;;;5095247;28;20032;-64
2022/09/02 01:15:48;;;;;;;3.00;1.25;;;13.40;99.90;;;;;;5060681;28;20040;-64
2022/09/02 01:18:19;;;;;;;2.40;1.40;;;13.40;99.90;;;;;;5074508;28;20098;-64
2022/09/02 01:20:46;;;;;;;3.55;1.50;;;13.40;99.90;;;;;;5060619;28;20446;-63
2022/09/02 01:23:15;;;;;;;3.00;1.48;;;13.40;99.90;;;;;;5077178;28;20066;-64
2022/09/02 01:25:42;;;;;;;2.85;1.20;;;13.30;99.90;;;;;;5077166;28;20076;-63
2022/09/02 01:28:11;;;;;;;3.05;1.48;;;13.30;99.90;;;;;;5095076;28;20360;-64
2022/09/02 01:30:41;;;;;;;2.20;1.50;;;13.30;99.90;;;;;;5076731;28;20083;-64
2022/09/02 01:33:08;;;;;;;2.35;1.27;;;13.30;99.90;;;;;;5076927;28;20036;-64
2022/09/02 01:35:33;;;;;;;3.40;1.20;;;13.20;99.90;;;;;;5076894;28;20472;-63
2022/09/02 01:38:01;;;;;;;2.85;1.23;;;13.20;99.90;;;;;;5094766;28;20067;-63
2022/09/02 01:40:28;;;;;;;2.70;1.40;;;13.20;99.90;;;;;;5076653;28;20036;-63
2022/09/02 01:43:00;;;;;;;2.13;1.40;;;13.20;99.90;;;;;;5076538;28;20082;-63
2022/09/02 01:45:26;;;;;;;2.30;1.17;;;13.20;99.90;;;;;;5094607;28;20044;-63
2022/09/02 01:47:52;;;;;;;3.30;1.50;;;13.20;99.90;;;;;;5092080;28;20039;-63
2022/09/02 01:50:18;;;;;;;2.70;1.30;;;13.10;99.90;;;;;;5076705;28;20059;-63
2022/09/02 01:52:44;;;;;;;2.95;1.10;;;13.10;99.90;;;;;;5076332;28;20543;-63
2022/09/02 01:55:10;;;;;;;3.28;1.40;;;13.10;99.90;;;;;;5059609;28;20123;-64
2022/09/02 01:57:36;;;;;;;4.15;1.45;;;13.00;99.90;;;;;;5076307;28;20165;-63
2022/09/02 02:00:05;;;;;;;9.00;1.40;;;13.00;99.90;;;;;;5059872;28;20067;-63
2022/09/02 02:02:31;;;;;;;2.03;1.50;;;13.00;99.90;;;;;;5059550;28;20044;-63
2022/09/02 02:04:57;;;;;;;3.47;1.27;;;13.00;99.90;;;;;;5076403;28;20062;-63
2022/09/02 02:07:23;;;;;;;2.65;1.08;;;12.90;99.90;;;;;;5075471;28;20538;-63
2022/09/02 02:09:50;;;;;;;5.13;1.50;;;12.90;99.90;;;;;;5076123;28;20048;-63
2022/09/02 02:12:17;;;;;;;3.15;1.30;;;12.90;99.90;;;;;;5059297;28;20036;-63
2022/09/02 02:14:43;;;;;;;2.30;1.25;;;12.80;99.90;;;;;;5076254;28;20080;-64
2022/09/02 02:17:09;;;;;;;4.53;1.60;;;12.80;99.90;;;;;;5073492;28;20487;-63
2022/09/02 02:19:35;;;;;;;4.15;1.50;;;12.80;99.90;;;;;;5059163;28;20042;-64
2022/09/02 02:22:02;;;;;;;2.65;1.63;;;12.70;99.90;;;;;;5075867;28;20190;-63
2022/09/02 02:24:28;;;;;;;2.33;1.50;;;12.70;99.90;;;;;;5094005;28;20097;-63
2022/09/02 02:26:54;;;;;;;3.78;1.55;;;12.70;99.90;;;;;;5059076;28;20481;-63
2022/09/02 02:29:21;;;;;;;3.47;1.42;;;12.60;99.90;;;;;;5075890;28;20051;-63
2022/09/02 02:31:47;;;;;;;3.83;1.60;;;12.60;99.90;;;;;;5058935;28;20040;-63
2022/09/02 02:34:13;;;;;;;2.35;1.35;;;12.60;99.90;;;;;;5059546;28;20438;-63
2022/09/02 02:36:41;;;;;;;2.78;1.50;;;12.60;99.90;;;;;;5075529;28;20048;-63
2022/09/02 02:39:08;;;;;;;2.53;1.30;;;12.60;99.90;;;;;;5075666;28;20123;-63
2022/09/02 02:41:35;;;;;;;3.45;1.35;;;12.60;99.90;;;;;;5075717;28;20035;-63
2022/09/02 02:44:01;;;;;;;4.40;1.50;;;12.60;99.90;;;;;;5058815;28;20036;-63
2022/09/02 02:46:29;;;;;;;4.32;1.67;;;12.50;99.90;;;;;;5073150;28;20096;-63
2022/09/02 02:48:57;;;;;;;2.60;1.40;;;12.50;99.90;;;;;;5093470;28;20040;-63
2022/09/02 02:51:23;;;;;;;2.75;1.42;;;12.50;99.90;;;;;;5075428;28;20040;-63
2022/09/02 02:53:49;;;;;;;2.47;1.30;;;12.50;99.90;;;;;;5058545;28;20499;-63
2022/09/02 02:56:15;;;;;;;2.65;1.65;;;12.50;99.90;;;;;;5075089;28;20040;-63
2022/09/02 02:58:41;;;;;;;4.82;1.48;;;12.50;99.90;;;;;;5075087;28;20043;-63
2022/09/02 03:01:08;;;;;;;4.57;1.50;;;12.40;99.90;;;;;;5093405;28;20119;-63
2022/09/02 03:03:33;;;;;;;4.72;1.42;;;12.40;99.90;;;;;;5093315;28;20133;-63
2022/09/02 03:05:59;;;;;;;3.13;1.40;;;12.40;99.90;;;;;;5058436;28;20097;-64
2022/09/02 03:08:26;;;;;;;4.05;1.88;;;12.30;99.90;;;;;;5092950;28;20052;-63
2022/09/02 03:10:54;;;;;;;1.92;1.50;;;12.30;99.90;;;;;;5092894;28;20048;-63
2022/09/02 03:13:22;;;;;;;2.00;1.40;;;12.30;99.90;;;;;;5075006;28;20044;-64
2022/09/02 03:15:51;;;;;;;1.67;1.25;;;12.20;99.90;;;;;;5075049;28;20050;-64
2022/09/02 03:18:18;;;;;;;6.00;1.38;;;12.20;99.90;;;;;;5071766;28;20040;-63
2022/09/02 03:20:44;;;;;;;1.73;1.35;;;12.20;99.90;;;;;;5074504;28;20054;-63
2022/09/02 03:23:12;;;;;;;2.50;1.48;;;12.20;99.90;;;;;;5074679;28;20062;-63
2022/09/02 03:25:41;;;;;;;3.65;1.42;;;12.20;99.90;;;;;;5074891;28;20044;-63
2022/09/02 03:28:07;;;;;;;4.60;1.30;;;12.20;99.90;;;;;;5074526;28;20097;-63
2022/09/02 03:30:33;;;;;;;1.85;1.60;;;12.10;99.90;;;;;;5074744;28;20043;-63
2022/09/02 03:33:01;;;;;;;2.63;1.35;;;12.10;99.90;;;;;;5092502;28;20508;-63
2022/09/02 03:35:28;;;;;;;1.70;1.30;;;12.10;99.90;;;;;;5057721;28;20040;-63
2022/09/02 03:37:54;;;;;;;4.45;1.60;;;12.10;99.90;;;;;;5092460;28;20036;-63
2022/09/02 03:40:24;;;;;;;2.85;1.90;;;12.10;99.90;;;;;;5092441;28;20051;-64
2022/09/02 03:42:52;;;;;;;3.25;1.60;;;12.00;99.90;;;;;;5074255;28;20040;-63
2022/09/02 03:45:18;;;;;;;4.90;1.70;;;12.00;99.90;;;;;;5057872;28;20043;-63
2022/09/02 03:47:53;;;;;;;3.65;1.42;;;12.10;99.90;;;;;;5071852;28;20129;-63
2022/09/02 03:50:30;;;;;;;2.72;1.58;;;12.00;99.90;;;;;;5092205;28;20044;-63
2022/09/02 03:52:58;;;;;;;4.10;1.77;;;12.00;99.90;;;;;;5074147;28;20508;-63
2022/09/02 03:55:25;;;;;;;3.85;1.92;;;12.00;99.90;;;;;;5074344;28;20389;-63
2022/09/02 03:57:51;;;;;;;4.85;2.20;;;11.90;99.90;;;;;;5074085;28;20625;-63
2022/09/02 04:00:19;;;;;;;2.45;1.50;;;11.90;99.90;;;;;;5092148;28;20165;-63
2022/09/02 04:02:46;;;;;;;2.20;1.60;;;11.90;99.90;;;;;;5092102;28;20040;-64
2022/09/02 04:05:12;;;;;;;3.05;1.63;;;12.00;99.90;;;;;;5074230;28;20043;-64
2022/09/02 04:07:39;;;;;;;4.93;1.80;;;12.00;99.90;;;;;;5057112;28;20121;-63
2022/09/02 04:10:07;;;;;;;2.38;1.40;;;12.00;99.90;;;;;;5074131;28;20131;-64
2022/09/02 04:12:34;;;;;;;4.88;1.70;;;12.00;99.90;;;;;;5074072;28;20523;-64
2022/09/02 04:15:03;;;;;;;2.53;1.38;;;11.90;99.90;;;;;;5057367;28;20032;-64
2022/09/02 04:17:29;;;;;;;4.57;1.67;;;11.90;99.90;;;;;;5089931;28;20485;-63
2022/09/02 04:19:55;;;;;;;3.50;1.65;;;11.90;99.90;;;;;;5074149;28;20139;-64
2022/09/02 04:22:21;;;;;;;3.38;1.50;;;11.90;99.90;;;;;;5073775;28;20563;-64
2022/09/02 04:24:47;;;;;;;2.78;1.67;;;11.90;99.90;;;;;;5057356;28;20040;-63
2022/09/02 04:27:13;;;;;;;2.83;1.88;;;11.80;99.90;;;;;;5073787;28;20466;-63
2022/09/02 04:29:38;;;;;;;3.50;1.58;;;11.80;99.90;;;;;;5073852;28;20207;-63
2022/09/02 04:32:04;;;;;;;3.90;1.83;;;11.80;99.90;;;;;;5061033;28;20036;-64
2022/09/02 04:34:30;;;;;;;2.80;2.13;;;11.80;99.90;;;;;;5061144;28;20047;-63
2022/09/02 04:36:56;;;;;;;2.00;1.80;;;11.80;99.90;;;;;;5078061;28;20043;-64
2022/09/02 04:39:22;;;;;;;4.80;1.67;;;11.80;99.90;;;;;;5061026;28;20552;-63
2022/09/02 04:41:48;;;;;;;2.72;1.85;;;11.80;99.90;;;;;;5096010;28;20040;-63
2022/09/02 04:44:14;;;;;;;2.85;1.98;;;11.80;99.90;;;;;;5077729;28;20100;-64
2022/09/02 04:46:39;;;;;;;3.22;2.03;;;11.70;99.90;;;;;;5075198;28;20100;-64
2022/09/02 04:49:05;;;;;;;5.00;1.73;;;11.70;99.90;;;;;;5077830;28;20039;-63
2022/09/02 04:51:31;;;;;;;4.43;1.80;;;11.70;99.90;;;;;;5095731;28;20581;-64
2022/09/02 04:53:57;;;;;;;3.08;1.40;;;11.60;99.90;;;;;;5095552;28;20036;-63
2022/09/02 04:56:26;;;;;;;3.60;1.63;;;11.60;99.90;;;;;;5077419;28;20036;-63
2022/09/02 04:58:53;;;;;;;3.83;1.90;;;11.60;99.90;;;;;;5095525;28;20040;-63
2022/09/02 05:01:29;;;;;;;3.22;1.55;;;11.70;99.90;;;;;;5060912;28;20048;-64
2022/09/02 05:03:55;;;;;;;5.72;1.70;;;11.70;99.90;;;;;;5077354;28;20047;-63
2022/09/02 05:06:25;;;;;;;4.07;1.55;;;11.70;99.90;;;;;;5095359;28;20036;-63
2022/09/02 05:08:56;;;;;;;5.50;2.03;;;11.80;99.90;;;;;;5077327;28;20127;-64
2022/09/02 05:11:28;;;;;;;2.67;1.60;;;11.80;99.90;;;;;;5077133;28;20076;-63
2022/09/02 05:13:56;;;;;;;4.63;1.83;;;11.80;99.90;;;;;;5095121;28;20032;-64
2022/09/02 05:16:26;;;;;;;4.00;1.73;;;11.80;99.90;;;;;;5075736;28;20117;-63
2022/09/02 05:18:53;;;;;;;2.42;1.70;;;11.90;99.90;;;;;;5076975;28;20044;-64
2022/09/02 05:21:21;;;;;;;3.30;1.83;;;11.90;99.90;;;;;;5077023;28;20516;-63
2022/09/02 05:23:47;;;;;;;2.80;1.95;;;11.90;99.90;;;;;;5060111;28;20488;-64
2022/09/02 05:26:13;;;;;;;2.47;1.52;;;12.00;99.90;;;;;;5095423;28;20089;-63
2022/09/02 05:28:39;;;;;;;3.03;1.73;;;12.00;99.90;;;;;;5095284;28;20039;-63
2022/09/02 05:31:11;;;;;;;2.95;1.70;;;12.00;99.90;;;;;;5094984;28;20032;-63
2022/09/02 05:33:39;;;;;;;2.45;1.70;;;12.10;99.90;;;;;;5076705;28;20544;-63
2022/09/02 05:36:11;;;;;;;5.00;1.75;;;12.10;99.90;;;;;;5076718;28;20036;-64
2022/09/02 05:38:39;;;;;;;2.50;1.50;;;12.20;99.90;;;;;;5076918;28;20089;-64
2022/09/02 05:41:07;;;;;;;2.63;1.60;;;12.30;99.90;;;;;;5076385;28;20516;-63
2022/09/02 05:43:40;;;;;;;5.50;1.50;;;12.40;99.90;;;;;;5075918;28;20573;-63
2022/09/02 05:46:07;;;;;;;3.10;1.35;;;12.40;99.90;;;;;;5076701;28;20051;-63
2022/09/02 05:51:37;;;;;;;2.03;1.55;;;12.50;99.90;;;;;;4976515;28;20113;-63
2022/09/02 05:54:03;;;;;;;3.08;1.48;;;12.60;99.90;;;;;;5056031;28;20127;-63
2022/09/02 05:56:29;;;;;;;2.92;1.77;;;12.60;99.90;;;;;;5076382;28;20043;-64
2022/09/02 05:58:56;;;;;;;3.10;1.55;;;12.70;99.90;;;;;;5077059;28;20051;-63
2022/09/02 06:01:22;;;;;;;3.47;1.40;;;12.70;99.90;;;;;;5077187;28;20040;-63
2022/09/02 06:03:49;;;;;;;2.70;1.50;;;12.80;99.90;;;;;;5077140;28;20054;-64
2022/09/02 06:06:15;;;;;;;3.58;1.60;;;12.90;99.90;;;;;;5077125;28;20492;-64
2022/09/02 06:08:41;;;;;;;2.97;1.60;;;13.10;99.90;;;;;;5076831;28;20056;-64
2022/09/02 06:11:09;;;;;;;2.90;1.40;;;13.20;99.90;;;;;;5077045;28;20044;-63
2022/09/02 06:13:38;;;;;;;2.72;1.55;;;13.40;99.90;;;;;;5076981;28;20452;-64
2022/09/02 06:16:05;;;;;;;4.70;1.55;;;13.50;99.90;;;;;;5077180;28;20036;-63
2022/09/02 06:18:31;;;;;;;2.70;1.45;;;13.70;99.90;;;;;;5057812;28;20044;-63
2022/09/02 06:20:57;;;;;;;2.08;1.17;;;13.90;99.90;;;;;;5094195;28;20111;-63
2022/09/02 06:23:23;;;;;;;5.72;1.50;;;14.10;99.90;;;;;;5074931;28;20044;-63
2022/09/02 06:25:50;;;;;;;2.67;1.30;;;14.20;99.90;;;;;;5076283;28;20039;-63
2022/09/02 06:28:17;;;;;;;2.90;1.17;;;14.50;99.90;;;;;;5088845;28;20097;-63
2022/09/02 06:30:44;;;;;;;5.57;1.38;;;14.70;99.90;;;;;;5076379;28;20038;-64
2022/09/02 06:33:11;;;;;;;4.43;1.42;;;15.00;99.90;;;;;;5076169;28;20484;-63
2022/09/02 06:35:41;;;;;;;2.03;1.08;;;15.30;99.90;;;;;;5076481;28;20442;-63
2022/09/02 06:38:07;;;;;;;3.10;0.98;;;15.70;99.90;;;;;;5094541;28;20427;-63
2022/09/02 06:40:33;;;;;;;1.85;1.08;;;16.00;99.90;;;;;;5076499;28;20035;-64
2022/09/02 06:42:59;;;;;;;5.28;1.33;;;16.30;99.90;;;;;;5076364;28;20063;-64
2022/09/02 06:45:25;;;;;;;5.00;0.90;;;16.60;99.90;;;;;;5076040;28;20043;-63
2022/09/02 06:47:52;;;;;;;1.50;0.80;;;16.80;99.90;;;;;;5091960;28;20043;-64
2022/09/02 06:50:19;;;;;;;2.47;1.08;;;16.70;99.90;;;;;;5076106;28;20048;-64
2022/09/02 06:52:45;;;;;;;2.35;1.00;;;16.60;99.90;;;;;;5075930;28;20048;-63
2022/09/02 06:55:11;;;;;;;2.75;0.88;;;16.40;99.90;;;;;;5093920;28;20051;-64
2022/09/02 06:57:38;;;;;;;7.30;1.20;;;16.40;99.90;;;;;;5075169;28;20052;-64
2022/09/02 07:00:07;;;;;;;1.77;0.90;;;16.40;99.90;;;;;;5075276;28;20047;-64
2022/09/02 07:02:33;;;;;;;3.85;0.90;;;16.40;99.90;;;;;;5075301;28;20119;-64
2022/09/02 07:05:08;;;;;;;1.30;0.70;;;16.40;99.90;;;;;;5074870;28;20046;-64
2022/09/02 07:07:39;;;;;;;1.58;0.80;;;16.40;99.90;;;;;;5092841;28;20135;-64
2022/09/02 07:10:09;;;;;;;5.00;1.40;;;16.40;99.90;;;;;;5074837;28;20058;-65
2022/09/02 07:12:36;;;;;;;1.70;0.98;;;16.50;99.90;;;;;;5074849;28;20507;-64
2022/09/02 07:15:03;;;;;;;2.42;0.90;;;16.50;99.90;;;;;;5093459;28;20202;-64
2022/09/02 07:17:29;;;;;;;2.85;1.17;;;16.50;99.90;;;;;;5090369;28;20044;-64
2022/09/02 07:19:58;;;;;;;2.13;1.17;;;16.70;99.90;;;;;;5074573;28;20125;-64
2022/09/02 07:22:24;;;;;;;2.40;0.95;;;16.70;99.90;;;;;;5074796;28;20044;-64
2022/09/02 07:24:50;;;;;;;2.53;1.13;;;16.80;99.90;;;;;;5075046;28;20130;-64
2022/09/02 07:27:19;;;;;;;3.53;1.05;;;16.90;99.90;;;;;;5074607;28;20127;-65
2022/09/02 07:29:47;;;;;;;3.20;1.10;;;17.10;99.90;;;;;;5074568;28;20123;-65
2022/09/02 07:32:16;;;;;;;3.72;1.20;;;17.20;99.90;;;;;;5074650;28;20123;-65
2022/09/02 07:34:42;;;;;;;3.05;1.27;;;17.20;99.90;;;;;;5075429;28;20071;-64
2022/09/02 07:37:09;;;;;;;3.90;1.00;;;17.30;99.90;;;;;;5093556;28;20118;-64
2022/09/02 07:39:35;;;;;;;2.10;1.13;;;17.40;99.90;;;;;;5073285;28;20087;-64
2022/09/02 07:42:01;;;;;;;2.22;1.05;;;17.50;99.90;;;;;;5074175;28;20501;-64
2022/09/02 07:44:26;;;;;;;3.03;1.10;;;17.60;99.90;;;;;;5093026;28;20036;-64
2022/09/02 07:46:53;;;;;;;2.60;1.05;;;17.70;99.90;;;;;;5056344;28;20101;-64
2022/09/02 07:49:19;;;;;;;6.15;1.20;;;17.90;99.90;;;;;;5075010;28;20642;-64
2022/09/02 07:51:50;;;;;;;3.03;1.00;;;18.00;99.90;;;;;;5092955;28;20040;-64
2022/09/02 07:54:19;;;;;;;2.20;0.98;;;18.20;99.90;;;;;;5075300;28;20127;-64
2022/09/02 07:56:45;;;;;;;2.65;0.90;;;18.30;99.90;;;;;;5074807;28;20045;-65
2022/09/02 07:59:11;;;;;;;2.60;0.90;;;18.50;99.90;;;;;;5074172;28;20048;-64
2022/09/02 08:01:37;;;;;;;3.10;0.95;;;18.70;99.90;;;;;;5074165;28;20068;-64
2022/09/02 08:04:05;;;;;;;1.88;0.90;;;18.90;99.90;;;;;;5073970;28;20072;-65
2022/09/02 08:06:32;;;;;;;2.45;0.90;;;19.30;99.90;;;;;;5073327;28;20039;-64
2022/09/02 08:08:57;;;;;;;3.63;1.33;;;19.70;99.90;;;;;;5073801;28;20084;-65
2022/09/02 08:11:23;;;;;;;1.27;0.90;;;20.10;99.90;;;;;;5074040;28;20078;-64
2022/09/02 08:13:50;;;;;;;3.33;1.02;;;20.50;99.90;;;;;;5073729;28;20036;-65
2022/09/02 08:16:16;;;;;;;1.77;1.15;;;20.80;99.10;;;;;;5092110;28;20048;-64
2022/09/02 08:18:42;;;;;;;3.08;0.95;;;20.90;98.70;;;;;;5054915;28;20090;-65
2022/09/02 08:21:08;;;;;;;2.10;0.70;;;21.10;98.70;;;;;;5091959;28;20565;-64
2022/09/02 08:23:34;;;;;;;3.40;1.20;;;21.30;98.40;;;;;;5091707;28;20040;-64
2022/09/02 08:26:01;;;;;;;2.50;1.15;;;21.50;97.40;;;;;;5074050;28;20077;-64
2022/09/02 08:28:28;;;;;;;1.92;1.02;;;21.90;96.70;;;;;;5073693;28;20121;-65
2022/09/02 08:30:57;;;;;;;2.45;1.00;;;22.20;96.00;;;;;;5091957;28;20494;-64
2022/09/02 08:33:23;;;;;;;;;;;22.40;95.70;;;;;;5092150;28;20108;-65
2022/09/02 08:35:49;;;;;;;3.35;0.90;;;22.70;94.90;;;;;;5091685;28;20376;-64
2022/09/02 08:38:15;;;;;;;3.65;0.80;;;22.90;94.70;;;;;;5073555;28;20538;-65
2022/09/02 08:40:43;;;;;;;1.77;0.93;;;23.00;93.00;;;;;;5073834;28;20173;-68
2022/09/02 08:43:38;;;;;;;5.20;1.08;;;23.20;92.90;;;;;;5073894;28;20077;-64
2022/09/02 08:46:10;;;;;;;1.92;0.90;;;23.40;90.60;;;;;;5056923;28;20361;-65
2022/09/02 08:48:51;;;;;;;2.60;0.90;;;23.50;91.30;;;;;;5071477;28;20051;-67
2022/09/02 08:51:35;;;;;;;1.88;0.88;;;23.80;91.20;;;;;;5074745;28;20036;-67
2022/09/02 08:54:19;;;;;;;2.55;1.10;;;24.10;88.20;;;;;;5057937;28;20756;-67
2022/09/02 08:56:47;;;;;;;2.55;1.00;;;24.30;88.80;;;;;;5074329;28;20496;-67
2022/09/02 08:59:14;;;;;;;5.90;1.35;;;24.50;89.30;;;;;;5074287;28;20040;-67
2022/09/02 09:02:01;;;;;;;2.75;1.00;;;24.90;88.00;;;;;;5074400;28;20392;-67
2022/09/02 09:04:54;;;;;;;4.35;1.00;;;25.20;86.40;;;;;;5074357;28;20070;-67
2022/09/02 09:07:33;;;;;;;4.15;0.93;;;25.50;83.10;;;;;;5057531;28;20449;-67
2022/09/02 09:10:24;;;;;;;1.52;0.77;;;25.60;83.20;;;;;;5092646;28;20051;-66
2022/09/02 09:13:20;;;;;;;2.95;0.90;;;25.60;82.80;;;;;;5057448;28;20043;-68
2022/09/02 09:16:11;;;;;;;4.63;1.10;;;25.70;80.70;;;;;;5092146;28;20519;-67
2022/09/02 09:18:40;;;;;;;5.82;1.55;;;25.70;78.40;;;;;;5075347;28;20032;-67
2022/09/02 09:21:07;;;;;;;2.60;0.80;;;25.70;78.90;;;;;;5078157;28;20432;-67
2022/09/02 09:23:38;;;;;;;4.43;0.70;;;25.80;77.70;;;;;;5077702;28;20465;-66
2022/09/02 09:26:10;;;;;;;1.90;0.75;;;26.10;78.00;;;;;;5061454;28;20106;-67
2022/09/02 09:28:47;;;;;;;3.25;1.55;;;26.30;76.30;;;;;;5061388;28;20400;-66
2022/09/02 09:31:18;;;;;;;3.03;0.70;;;26.40;75.40;;;;;;5077576;28;20497;-66
2022/09/02 09:34:16;;;;;;;3.22;1.25;;;26.50;73.50;;;;;;5060843;28;20048;-67
2022/09/02 09:36:52;;;;;;;4.27;1.00;;;26.60;76.30;;;;;;5040272;28;20080;-67
2022/09/02 09:39:25;;;;;;;2.15;0.63;;;26.90;72.40;;;;;;5095948;28;20288;-66
2022/09/02 09:42:10;;;;;;;3.40;0.80;;;27.00;70.20;;;;;;5095613;28;20468;-66
2022/09/02 09:44:37;;;;;;;4.07;0.95;;;27.10;67.70;;;;;;5060762;28;20032;-66
2022/09/02 09:47:25;;;;;;;1.65;0.70;;;27.10;67.90;;;;;;5075059;28;20385;-67
2022/09/02 09:50:09;;;;;;;1.50;0.68;;;27.30;68.00;;;;;;5077533;28;20058;-67
2022/09/02 09:52:36;;;;;;;6.30;0.77;;;27.40;65.20;;;;;;5095444;28;20040;-67
2022/09/02 09:55:06;;;;;;;3.63;1.42;;;27.40;65.80;;;;;;5077233;28;20091;-67
2022/09/02 09:57:32;;;;;;;3.70;0.93;;;27.40;65.50;;;;;;5077100;28;20040;-65
2022/09/02 10:00:01;;;;;;;2.40;0.70;;;27.50;63.80;;;;;;5077111;28;20048;-66
2022/09/02 10:02:27;;;;;;;4.10;1.08;;;27.50;63.50;;;;;;5095240;28;20493;-66
2022/09/02 10:05:18;;;;;;;1.95;0.60;;;27.40;64.10;;;;;;5077249;28;20066;-66
2022/09/02 10:07:57;;;;;;;4.53;0.90;;;27.50;63.00;;;;;;5061999;28;20059;-67
2022/09/02 10:10:25;;;;;;;2.65;0.77;;;27.70;64.60;;;;;;5094410;28;20051;-65
2022/09/02 10:12:55;;;;;;;2.07;0.70;;;27.90;62.50;;;;;;5059260;28;20061;-66
2022/09/02 10:15:39;;;;;;;3.25;0.65;;;28.10;61.50;;;;;;5076151;28;20044;-66
2022/09/02 10:18:39;;;;;;;1.30;0.60;;;28.10;60.60;;;;;;5073532;28;20065;-67
2022/09/02 10:21:15;;;;;;;1.65;0.63;;;28.20;59.50;;;;;;5055778;28;20037;-66
2022/09/02 10:23:56;;;;;;;2.83;0.90;;;28.30;59.30;;;;;;5055558;28;20040;-66
2022/09/02 10:26:38;;;;;;;4.90;0.90;;;28.40;59.20;;;;;;5055867;28;20040;-66
2022/09/02 10:29:38;;;;;;;2.55;0.95;;;28.40;57.50;;;;;;5055057;28;20082;-66
2022/09/02 10:32:13;;;;;;;2.30;0.90;;;28.20;57.50;;;;;;5056504;28;20048;-65
2022/09/02 10:34:57;;;;;;;4.72;0.90;;;28.20;57.20;;;;;;5059062;28;20056;-67
2022/09/02 10:37:25;;;;;;;2.83;0.70;;;28.30;57.60;;;;;;5075353;28;20074;-67
2022/09/02 10:40:18;;;;;;;4.35;0.77;;;28.30;56.50;;;;;;5075734;28;20048;-66
2022/09/02 10:43:29;;;;;;;3.35;0.57;;;28.30;57.40;;;;;;5093570;28;20102;-67
2022/09/02 10:46:00;;;;;;;8.80;0.90;;;28.50;55.50;;;;;;5054533;28;20096;-66
2022/09/02 10:48:49;;;;;;;3.25;1.05;;;28.50;55.00;;;;;;5072903;28;20079;-68
2022/09/02 10:51:36;;;;;;;2.97;0.73;;;28.60;55.10;;;;;;5093273;28;20086;-66
2022/09/02 10:54:31;;;;;;;3.55;0.70;;;28.60;54.50;;;;;;5058374;28;20050;-65
2022/09/02 10:57:30;;;;;;;3.03;0.60;;;28.60;54.20;;;;;;5054386;28;20427;-66
2022/09/02 11:00:18;;;;;;;2.72;0.85;;;28.70;55.30;;;;;;5075033;28;20552;-67
2022/09/02 11:03:16;;;;;;;1.92;0.80;;;28.80;54.20;;;;;;5075079;28;20040;-67
2022/09/02 11:05:53;;;;;;;3.00;0.70;;;28.70;54.00;;;;;;5058162;28;20050;-67
2022/09/02 11:08:45;;;;;;;2.95;0.60;;;28.70;53.70;;;;;;5074636;28;20047;-66
2022/09/02 11:11:43;;;;;;;1.52;0.70;;;28.70;52.10;;;;;;5092873;28;20047;-67
2022/09/02 11:14:33;;;;;;;3.22;0.63;;;28.50;51.70;;;;;;5058288;28;20400;-66
2022/09/02 11:17:04;;;;;;;6.05;1.00;;;28.20;53.20;;;;;;5072011;28;20040;-66
2022/09/02 11:20:31;;;;;;;3.55;0.60;;;28.40;52.60;;;;;;5074784;28;20036;-65
2022/09/02 11:23:17;;;;;;;2.95;0.70;;;28.40;51.20;;;;;;5031761;28;20088;-66
2022/09/02 11:26:00;;;;;;;6.30;0.70;;;28.20;51.80;;;;;;5092484;28;20492;-67
2022/09/02 11:28:37;;;;;;;2.35;0.75;;;28.20;51.60;;;;;;5074377;28;20040;-66
2022/09/02 11:31:06;;;;;;;2.58;0.60;;;28.00;50.90;;;;;;5074333;28;20075;-67
2022/09/02 11:33:56;;;;;;;3.22;0.68;;;28.00;51.70;;;;;;5074054;28;20119;-67
2022/09/02 11:36:25;;;;;;;3.45;0.88;;;28.10;51.00;;;;;;5074173;28;20040;-66
2022/09/02 11:38:57;;;;;;;4.47;1.02;;;28.10;51.60;;;;;;5057803;28;20177;-67
2022/09/02 11:42:00;;;;;;;1.38;0.77;;;28.00;51.70;;;;;;5057162;28;20140;-67
2022/09/02 11:44:39;;;;;;;2.30;0.90;;;28.00;52.60;;;;;;5092255;28;20047;-67
2022/09/02 11:47:40;;;;;;;8.20;0.60;;;28.00;51.60;;;;;;5054742;28;20090;-66
2022/09/02 11:50:34;;;;;;;2.53;0.70;;;28.00;49.80;;;;;;5071955;28;20148;-67
2022/09/02 11:53:15;;;;;;;4.63;0.88;;;27.90;50.60;;;;;;5072047;28;20401;-66
2022/09/02 11:55:51;;;;;;;5.68;1.23;;;27.90;50.70;;;;;;5053886;28;20041;-68
2022/09/02 11:58:41;;;;;;;2.63;0.95;;;27.80;50.50;;;;;;5053983;28;20048;-65
2022/09/02 12:01:34;;;;;;;2.03;0.75;;;27.70;50.30;;;;;;5053815;28;20089;-67
2022/09/02 12:04:17;;;;;;;2.35;0.60;;;27.50;50.60;;;;;;5053884;28;20484;-67
2022/09/02 12:07:05;;;;;;;2.95;0.70;;;27.30;50.50;;;;;;5053967;28;20056;-66
2022/09/02 12:09:53;;;;;;;2.20;0.70;;;27.10;50.90;;;;;;5053718;28;20059;-66
2022/09/02 12:12:37;;;;;;;3.37;0.90;;;26.90;50.40;;;;;;5053629;28;20094;-65
2022/09/02 12:15:03;;;;;;;2.85;0.68;;;26.80;50.60;;;;;;5053692;28;20049;-66
2022/09/02 12:17:58;;;;;;;2.10;0.70;;;26.60;50.50;;;;;;5051128;28;20048;-67
2022/09/02 12:20:40;;;;;;;2.53;0.70;;;26.30;51.20;;;;;;5033671;28;20040;-66
2022/09/02 12:23:29;;;;;;;5.07;0.75;;;26.20;52.70;;;;;;5053865;28;20056;-67
2022/09/02 12:25:56;;;;;;;;;;;26.30;51.80;;;;;;5089447;28;20101;-66
2022/09/02 12:28:29;;;;;;;2.58;0.80;;;26.10;51.20;;;;;;5056933;28;19923;-66
2022/09/02 12:30:55;;;;;;;2.13;0.80;;;26.10;51.90;;;;;;5073931;28;20044;-66
2022/09/02 12:33:30;;;;;;;3.13;1.00;;;26.10;52.40;;;;;;5073639;28;20448;-66
2022/09/02 12:35:57;;;;;;;3.58;0.85;;;26.20;52.70;;;;;;5073847;28;20062;-66
2022/09/02 12:38:27;;;;;;;2.28;0.85;;;26.20;52.70;;;;;;5073559;28;20032;-67
2022/09/02 12:40:58;;;;;;;2.97;0.70;;;26.50;53.80;;;;;;5091726;28;20039;-67
2022/09/02 12:43:51;;;;;;;2.63;0.90;;;26.70;52.20;;;;;;5073636;28;20047;-66
2022/09/02 12:46:27;;;;;;;4.65;0.98;;;26.90;51.50;;;;;;5073790;28;20525;-65
2022/09/02 12:49:44;;;;;;;3.80;1.02;;;26.80;52.30;;;;;;5072089;28;20503;-66
2022/09/02 12:52:42;;;;;;;2.67;0.73;;;26.80;52.10;;;;;;5021649;28;20075;-66
2022/09/02 12:55:17;;;;;;;2.65;0.80;;;26.70;52.30;;;;;;5077634;28;20036;-68
2022/09/02 12:57:46;;;;;;;3.75;1.05;;;26.60;52.90;;;;;;5077533;28;20109;-66
2022/09/02 13:00:30;;;;;;;2.05;0.95;;;26.60;52.50;;;;;;5077381;28;20515;-66
2022/09/02 13:03:06;;;;;;;2.38;0.70;;;26.50;52.10;;;;;;5060694;28;20079;-67
2022/09/02 13:06:13;;;;;;;1.48;0.60;;;26.50;53.20;;;;;;5077433;28;20408;-66
2022/09/02 13:08:47;;;;;;;3.83;0.85;;;26.30;52.20;;;;;;4976912;28;20089;-66
2022/09/02 13:11:28;;;;;;;1.67;0.80;;;26.20;52.90;;;;;;4993366;28;20050;-65
2022/09/02 13:13:54;;;;;;;2.47;0.80;;;26.20;51.90;;;;;;5044135;28;20055;-66
2022/09/02 13:16:22;;;;;;;3.15;1.05;;;26.10;52.40;;;;;;5073728;28;20060;-66